Time;durP1;ratioP1;P1;durP2;ratioP2;P2;SDS_P1;SDS_P2;PMS_P1;PMS_P2;Temp;Humidity;BMP_temperature;BMP_pressure;BME280_temperature;BME280_humidity;BME280_pressure;Samples;Min_cycle;Max_cycle;Signal;HPM_P1;HPM_P2
2022/12/22 03:27:52;;;;;;;4.00;3.53;;;;;;;-143.84;82.46;45049.06;5090747;28;20438;-72
2022/12/22 03:30:19;;;;;;;6.60;4.77;;;;;;;-143.84;82.50;45070.00;5090613;28;20868;-72
2022/12/22 03:32:48;;;;;;;7.17;4.70;;;;;;;-143.84;82.33;45052.88;5090323;28;20440;-72
2022/12/22 03:35:15;;;;;;;7.40;4.93;;;;;;;-143.84;82.32;45043.34;5090300;28;20444;-72
2022/12/22 03:37:42;;;;;;;15.20;7.70;;;;;;;-143.84;82.26;45068.13;5090043;28;20479;-72
2022/12/22 03:40:10;;;;;;;5.20;4.70;;;;;;;-143.84;82.18;45083.34;5090433;28;20448;-72
2022/12/22 03:48:07;;;;;;;16.80;11.70;;;;;;;-143.84;81.86;45094.78;5090306;28;20431;-71
2022/12/22 03:50:36;;;;;;;17.97;7.90;;;;;;;-143.84;81.66;45102.38;5090365;28;20535;-72
2022/12/22 03:53:04;;;;;;;10.87;8.17;;;;;;;-143.84;81.93;45094.78;5090558;28;20436;-71
2022/12/22 03:55:31;;;;;;;14.23;8.80;;;;;;;-143.84;82.43;45064.31;5090046;28;20444;-71
2022/12/22 03:57:58;;;;;;;20.87;9.40;;;;;;;-143.84;82.40;45089.06;5089984;28;20479;-72
2022/12/22 04:00:25;;;;;;;8.50;7.60;;;;;;;-143.84;82.32;45058.59;5090375;28;20478;-72
2022/12/22 04:02:52;;;;;;;6.60;5.80;;;;;;;-143.84;82.16;45079.53;5090143;28;20432;-72
2022/12/22 04:05:21;;;;;;;7.37;4.40;;;;;;;-143.84;82.16;45087.16;5090082;28;20440;-72
2022/12/22 04:07:48;;;;;;;17.33;11.37;;;;;;;-143.84;81.96;45081.44;5090176;28;20440;-71
2022/12/22 04:13:00;;;;;;;10.00;7.93;;;;;;;-143.84;81.62;45121.44;5090308;28;20427;-72
2022/12/22 04:15:29;;;;;;;11.27;7.63;;;;;;;-143.84;81.45;45117.63;5090070;28;20504;-72
2022/12/22 04:17:57;;;;;;;11.23;7.23;;;;;;;-143.84;81.56;45096.66;5089511;28;20479;-72
2022/12/22 04:20:27;;;;;;;11.17;7.70;;;;;;;-143.84;81.41;45119.53;5089756;28;20938;-71
2022/12/22 04:22:54;;;;;;;11.27;8.03;;;;;;;-143.84;81.41;45111.91;5089691;28;20468;-72
2022/12/22 04:25:21;;;;;;;10.07;7.40;;;;;;;-143.84;81.34;45106.19;5090018;28;20432;-72
2022/12/22 04:27:48;;;;;;;12.73;7.73;;;;;;;-143.84;81.16;45115.72;5089832;28;20443;-72
2022/12/22 04:30:17;;;;;;;16.53;10.70;;;;;;;-143.84;80.93;45155.69;5089681;28;20466;-72
2022/12/22 04:32:44;;;;;;;14.47;9.60;;;;;;;-143.84;81.12;45136.66;5089776;28;20432;-72
2022/12/22 04:35:11;;;;;;;9.83;8.20;;;;;;;-143.84;81.41;45129.03;5089603;28;20450;-72
2022/12/22 04:37:40;;;;;;;14.47;10.00;;;;;;;-143.84;81.47;45125.22;5089501;28;20537;-72
2022/12/22 04:40:08;;;;;;;10.27;5.93;;;;;;;-143.84;81.37;45110.00;5089543;28;20455;-72
2022/12/22 04:42:35;;;;;;;6.93;5.70;;;;;;;-143.84;81.19;45100.47;5089629;28;20444;-72
2022/12/22 04:45:02;;;;;;;8.80;5.50;;;;;;;-143.84;81.49;45110.00;5089498;28;20489;-72
2022/12/22 04:47:29;;;;;;;6.17;5.20;;;;;;;-143.84;81.42;45104.28;5089584;28;20432;-72
2022/12/22 04:49:56;;;;;;;8.50;5.73;;;;;;;-143.84;81.60;45096.66;5089562;28;20884;-72
2022/12/22 04:52:24;;;;;;;8.57;5.50;;;;;;;-143.84;81.24;45094.78;5089389;28;20443;-72
2022/12/22 04:54:52;;;;;;;5.97;5.33;;;;;;;-143.84;81.33;45102.38;5089335;28;20971;-72
2022/12/22 04:57:20;;;;;;;6.67;6.07;;;;;;;-143.84;81.04;45127.13;5092160;28;20432;-71
2022/12/22 04:59:47;;;;;;;6.40;4.83;;;;;;;-143.84;81.17;45111.91;5092923;28;20443;-71
2022/12/22 05:02:14;;;;;;;37.07;6.60;;;;;;;-143.84;80.55;45155.69;5093276;28;20489;-73
2022/12/22 05:04:42;;;;;;;8.57;7.33;;;;;;;-143.84;80.19;45136.66;5093310;28;20428;-71
2022/12/22 05:07:10;;;;;;;7.80;6.13;;;;;;;-143.84;80.37;45169.03;5092763;28;20451;-71
2022/12/22 05:09:37;;;;;;;10.90;7.03;;;;;;;-143.84;80.11;45167.13;5092662;28;20436;-71
2022/12/22 05:12:53;;;;;;;10.13;6.27;;;;;;;-143.84;79.93;45167.13;5092546;28;20464;-71
2022/12/22 05:14:53;;;;;;;7.13;5.90;;;;;;;-143.84;80.23;45157.59;5092664;28;20509;-71
2022/12/22 05:17:20;;;;;;;5.20;4.73;;;;;;;-143.84;79.76;45157.59;5092358;28;20435;-71
2022/12/22 05:19:47;;;;;;;6.70;5.60;;;;;;;-143.84;79.81;45119.53;5092632;28;20468;-72
2022/12/22 05:22:15;;;;;;;8.60;5.23;;;;;;;-143.84;80.10;45159.50;5092411;28;20436;-71
2022/12/22 05:24:42;;;;;;;13.67;6.80;;;;;;;-143.84;79.88;45138.56;5092172;28;20522;-71
2022/12/22 05:27:12;;;;;;;11.80;7.40;;;;;;;-143.84;80.15;45148.09;5092299;28;20459;-74
2022/12/22 05:29:39;;;;;;;14.67;6.73;;;;;;;-143.84;80.25;45144.28;5092972;28;20448;-74
2022/12/22 05:32:06;;;;;;;8.83;6.90;;;;;;;-143.84;79.88;45212.84;5092622;28;20436;-74
2022/12/22 05:34:33;;;;;;;14.03;7.03;;;;;;;-143.84;80.03;45184.25;5092037;28;20436;-72
2022/12/22 05:37:00;;;;;;;9.47;7.80;;;;;;;-143.84;79.90;45174.75;5092360;28;20440;-75
2022/12/22 05:39:28;;;;;;;10.67;7.40;;;;;;;-143.84;79.78;45172.84;5092080;28;20515;-71
2022/12/22 05:41:55;;;;;;;20.77;7.43;;;;;;;-143.84;81.07;45151.91;5092049;28;20458;-72
2022/12/22 05:44:23;;;;;;;8.30;7.00;;;;;;;-143.84;79.89;45186.16;5092322;28;20493;-71
2022/12/22 05:46:51;;;;;;;13.10;8.57;;;;;;;-143.84;79.66;45169.03;5092269;28;20849;-71
2022/12/22 05:49:18;;;;;;;10.70;7.90;;;;;;;-143.84;79.70;45150.00;5091776;28;20519;-71
2022/12/22 05:51:46;;;;;;;17.40;8.37;;;;;;;-143.84;80.12;45163.31;5092212;28;20501;-73
2022/12/22 05:54:13;;;;;;;15.13;8.53;;;;;;;-143.84;80.02;45169.03;5091891;28;20436;-73
2022/12/22 05:56:41;;;;;;;14.37;7.87;;;;;;;-143.84;80.10;45170.94;5092116;28;20443;-72
2022/12/22 05:59:10;;;;;;;9.30;7.10;;;;;;;-143.84;80.13;45153.81;5091964;28;20486;-72
2022/12/22 06:01:39;;;;;;;12.97;8.00;;;;;;;-143.84;80.02;45155.69;5091923;28;20436;-72
2022/12/22 06:04:06;;;;;;;9.40;7.10;;;;;;;-143.84;80.09;45123.34;5092006;28;20452;-72
2022/12/22 06:06:33;;;;;;;11.70;7.20;;;;;;;-143.84;79.95;45163.31;5091464;28;20930;-73
2022/12/22 06:09:00;;;;;;;19.57;8.00;;;;;;;-143.84;80.03;45157.59;5091829;28;20440;-72
2022/12/22 06:11:27;;;;;;;13.00;7.70;;;;;;;-143.84;79.93;45130.94;5091723;28;20477;-72
2022/12/22 06:13:54;;;;;;;17.67;8.83;;;;;;;-143.84;79.93;45142.38;5091959;28;20436;-73
2022/12/22 06:16:22;;;;;;;17.17;8.40;;;;;;;-143.84;79.68;45178.56;5091732;28;20557;-73
2022/12/22 06:18:50;;;;;;;13.70;8.47;;;;;;;-143.84;79.22;45189.97;5091255;28;21024;-72
2022/12/22 06:21:17;;;;;;;10.80;8.13;;;;;;;-143.84;79.08;45153.81;5091624;28;20445;-72
2022/12/22 06:23:46;;;;;;;9.00;7.17;;;;;;;-143.84;78.97;45191.88;5091420;28;20806;-72
2022/12/22 06:26:13;;;;;;;13.00;8.30;;;;;;;-143.84;78.89;45189.97;5091326;28;20818;-72
2022/12/22 06:28:40;;;;;;;11.97;7.90;;;;;;;-143.84;78.61;45161.41;5090905;28;20452;-72
2022/12/22 06:31:07;;;;;;;17.60;10.40;;;;;;;-143.84;78.45;45174.75;5091146;28;20505;-72
2022/12/22 06:33:34;;;;;;;27.50;10.13;;;;;;;-143.84;78.51;45197.59;5090754;28;20443;-72
2022/12/22 06:36:06;;;;;;;16.47;9.60;;;;;;;-143.84;78.51;45180.47;5089815;28;20501;-70
2022/12/22 06:38:34;;;;;;;16.97;9.30;;;;;;;-143.84;78.54;45172.84;5085478;28;20580;-70
2022/12/22 06:41:01;;;;;;;19.17;8.47;;;;;;;-143.84;78.52;45169.03;5091168;28;20452;-70
2022/12/22 06:43:27;;;;;;;14.40;9.83;;;;;;;-143.84;78.45;45174.75;5091450;28;21055;-71
2022/12/22 06:45:54;;;;;;;12.87;9.13;;;;;;;-143.84;78.31;45174.75;5091118;28;20543;-72
2022/12/22 06:48:21;;;;;;;13.90;10.43;;;;;;;-143.84;78.03;45209.03;5091418;28;20447;-72
2022/12/22 06:50:48;;;;;;;16.53;10.53;;;;;;;-143.84;78.10;45191.88;5091123;28;20436;-72
2022/12/22 06:53:17;;;;;;;13.40;9.30;;;;;;;-143.84;77.17;45188.06;5091384;28;20432;-72
2022/12/22 06:55:45;;;;;;;13.80;10.23;;;;;;;-143.84;77.26;45186.16;5091471;28;21235;-72
2022/12/22 06:58:12;;;;;;;24.03;11.03;;;;;;;-143.84;76.49;45189.97;5091327;28;20472;-72
2022/12/22 07:00:39;;;;;;;16.83;10.07;;;;;;;-143.84;75.83;45203.31;5091156;28;20513;-72
2022/12/22 07:03:06;;;;;;;15.07;8.70;;;;;;;-143.84;75.29;45193.78;5090913;28;20804;-72
2022/12/22 07:05:34;;;;;;;16.53;8.40;;;;;;;-143.84;74.92;45167.13;5090965;28;20866;-72
2022/12/22 07:08:01;;;;;;;6.83;5.87;;;;;;;-143.84;73.76;45205.22;5091416;28;20935;-72
2022/12/22 07:13:19;;;;;;;10.40;6.00;;;;;;;-143.84;70.65;45195.69;5089875;28;20864;-72
2022/12/22 07:15:47;;;;;;;11.23;5.93;;;;;;;-143.84;71.29;45210.94;5091018;28;20464;-72
2022/12/22 07:18:14;;;;;;;10.10;5.00;;;;;;;-143.84;69.35;45210.94;5090568;28;20495;-72
2022/12/22 07:20:41;;;;;;;10.50;5.37;;;;;;;-143.84;67.04;45201.41;5090536;28;20962;-72
2022/12/22 07:23:08;;;;;;;8.33;5.30;;;;;;;-143.84;67.30;45193.78;5090754;28;20499;-72
2022/12/22 07:25:37;;;;;;;8.77;4.73;;;;;;;-143.84;66.70;45218.53;5090758;28;20803;-72
2022/12/22 07:28:06;;;;;;;9.30;5.57;;;;;;;-143.84;66.07;45195.69;5090865;28;20450;-72
2022/12/22 07:30:35;;;;;;;9.93;4.83;;;;;;;-143.84;65.20;45212.84;5090755;28;20433;-73
2022/12/22 07:33:02;;;;;;;10.07;4.67;;;;;;;-143.84;64.42;45186.16;5090819;28;20437;-72
2022/12/22 07:35:29;;;;;;;7.23;4.80;;;;;;;-143.84;63.34;45186.16;5090825;28;20465;-73
2022/12/22 07:37:56;;;;;;;5.87;4.23;;;;;;;-143.84;63.17;45212.84;5090560;28;20441;-73
2022/12/22 07:40:23;;;;;;;11.50;6.00;;;;;;;-143.84;62.77;45178.56;5090408;28;20460;-73
2022/12/22 07:42:55;;;;;;;8.60;5.27;;;;;;;-143.84;61.81;45172.84;5090421;28;20514;-73
2022/12/22 07:45:22;;;;;;;7.63;5.80;;;;;;;-143.84;62.11;45209.03;5090419;28;20448;-73
2022/12/22 07:47:49;;;;;;;9.70;6.13;;;;;;;-143.84;62.18;45197.59;5090397;28;20496;-73
2022/12/22 07:50:27;;;;;;;12.20;6.37;;;;;;;-143.84;60.40;45186.16;5090507;28;20451;-73
2022/12/22 07:52:55;;;;;;;9.67;5.90;;;;;;;-143.84;59.31;45193.78;5090497;28;20454;-72
2022/12/22 07:55:23;;;;;;;8.37;5.10;;;;;;;-143.84;57.99;45209.03;5090335;28;20484;-73
2022/12/22 07:57:53;;;;;;;10.80;6.70;;;;;;;-143.84;58.25;45170.94;5090763;28;20439;-72
2022/12/22 08:00:21;;;;;;;8.20;6.20;;;;;;;-143.84;57.86;45191.88;5090288;28;20493;-72
2022/12/22 08:02:52;;;;;;;15.70;7.43;;;;;;;-143.84;56.44;45199.50;5090166;28;20443;-72
2022/12/22 08:05:20;;;;;;;14.10;7.43;;;;;;;-143.84;57.54;45169.03;5090486;28;20432;-72
2022/12/22 08:07:49;;;;;;;8.90;6.33;;;;;;;-143.84;56.53;45170.94;5090421;28;20441;-72
2022/12/22 08:10:16;;;;;;;7.47;4.30;;;;;;;-143.84;54.80;45178.56;5090333;28;20439;-72
2022/12/22 08:12:44;;;;;;;9.73;5.50;;;;;;;-143.84;54.35;45197.59;5090779;28;20427;-72
2022/12/22 08:15:13;;;;;;;10.93;5.13;;;;;;;-143.84;54.06;45180.47;5090422;28;20436;-72
2022/12/22 08:17:40;;;;;;;17.40;9.57;;;;;;;-143.84;54.07;45188.06;5089981;28;20455;-72
2022/12/22 08:20:08;;;;;;;10.73;6.63;;;;;;;-143.84;53.24;45195.69;5089776;28;21016;-72
2022/12/22 08:22:35;;;;;;;10.90;6.93;;;;;;;-143.84;52.08;45174.75;5089853;28;20453;-73
2022/12/22 08:25:02;;;;;;;11.17;7.20;;;;;;;-143.84;51.64;45163.31;5090094;28;20445;-72
2022/12/22 08:27:38;;;;;;;9.30;6.00;;;;;;;-143.84;51.69;45186.16;5089839;28;20437;-72
2022/12/22 08:30:08;;;;;;;6.33;5.30;;;;;;;-143.84;51.47;45148.09;5090895;28;20436;-73
2022/12/22 08:32:39;;;;;;;9.43;4.70;;;;;;;-143.84;50.09;45161.41;5093688;28;20499;-73
2022/12/22 08:35:08;;;;;;;7.37;5.13;;;;;;;-143.84;49.97;45184.25;5093302;28;20440;-73
2022/12/22 08:37:41;;;;;;;11.10;5.33;;;;;;;-143.84;50.73;45167.13;5094021;28;20485;-73
2022/12/22 08:40:12;;;;;;;13.77;4.97;;;;;;;-143.84;50.17;45216.63;5093597;28;20489;-72
2022/12/22 08:42:41;;;;;;;9.63;6.00;;;;;;;-143.84;49.39;45184.25;5093531;28;20977;-73
2022/12/22 08:45:10;;;;;;;7.80;5.30;;;;;;;-143.84;48.65;45155.69;5093513;28;20861;-73
2022/12/22 08:47:38;;;;;;;5.73;5.00;;;;;;;-143.84;50.12;45163.31;5093759;28;20446;-73
2022/12/22 08:50:07;;;;;;;7.43;5.60;;;;;;;-143.84;48.96;45169.03;5093626;28;20478;-73
2022/12/22 08:52:34;;;;;;;9.37;5.57;;;;;;;-143.84;48.77;45163.31;5093188;28;20480;-73
2022/12/22 08:55:01;;;;;;;10.67;5.87;;;;;;;-143.84;48.11;45153.81;5093283;28;20427;-73
2022/12/22 08:57:28;;;;;;;12.50;7.53;;;;;;;-143.84;47.55;45151.91;5093356;28;20429;-73
2022/12/22 08:59:55;;;;;;;10.57;7.83;;;;;;;-143.84;47.69;45189.97;5093134;28;20873;-73
2022/12/22 09:02:23;;;;;;;13.33;8.20;;;;;;;-143.84;48.47;45146.19;5093213;28;20438;-72
2022/12/22 09:04:51;;;;;;;7.73;6.93;;;;;;;-143.84;49.18;45176.66;5093188;28;20441;-72
2022/12/22 09:07:18;;;;;;;14.87;7.80;;;;;;;-143.84;49.27;45153.81;5093289;28;20451;-73
2022/12/22 09:09:45;;;;;;;15.97;6.83;;;;;;;-143.84;47.83;45150.00;5257572;22;20557;-72
2022/12/22 09:12:14;;;;;;;9.53;6.40;;;;;;;-143.84;47.98;45169.03;5032264;28;20446;-72
2022/12/22 09:14:41;;;;;;;8.43;5.50;;;;;;;-143.84;48.32;45163.31;5032376;28;20451;-71
2022/12/22 09:17:08;;;;;;;9.43;6.33;;;;;;;-143.84;48.51;45151.91;5032556;28;20446;-71
2022/12/22 09:19:40;;;;;;;20.53;7.70;;;;;;;-143.84;48.43;45151.91;5032443;28;20501;-71
2022/12/22 09:33:00;;;;;;;9.43;6.10;;;;;;;-143.84;48.13;45161.41;5034048;28;20438;-77
2022/12/22 09:35:27;;;;;;;9.90;6.00;;;;;;;-143.84;48.46;45151.91;5032385;28;20957;-76
2022/12/22 09:37:54;;;;;;;5.97;4.47;;;;;;;-143.84;48.03;45144.28;5033149;28;20449;-78
2022/12/22 09:40:23;;;;;;;8.03;4.47;;;;;;;-143.84;47.87;45165.22;5032955;28;21033;-78
2022/12/22 09:42:50;;;;;;;12.93;5.60;;;;;;;-143.84;49.00;45146.19;5031265;28;20445;-78
2022/12/22 09:45:19;;;;;;;4.40;4.00;;;;;;;-143.84;47.83;45132.84;5032445;28;20450;-79
2022/12/22 09:47:52;;;;;;;11.53;4.43;;;;;;;-143.84;48.25;45155.69;5032135;28;20441;-79
2022/12/22 09:50:23;;;;;;;4.93;4.43;;;;;;;-143.84;47.62;45172.84;5031691;28;20814;-78
2022/12/22 09:52:53;;;;;;;7.03;5.50;;;;;;;-143.84;47.56;45151.91;5031595;28;20596;-79
2022/12/22 09:55:38;;;;;;;5.60;4.77;;;;;;;-143.84;47.77;45151.91;5030091;28;20447;-79
2022/12/22 09:58:16;;;;;;;5.33;4.80;;;;;;;-143.84;48.71;45129.03;5032513;28;20537;-79
2022/12/22 10:00:45;;;;;;;12.40;5.60;;;;;;;-143.84;48.48;45150.00;5033322;28;20489;-79
2022/12/22 10:03:22;;;;;;;9.77;4.60;;;;;;;-143.84;49.26;45132.84;5033409;28;20449;-79
2022/12/22 10:05:55;;;;;;;6.73;5.90;;;;;;;-143.84;48.69;45153.81;5033082;28;20443;-78
2022/12/22 10:08:28;;;;;;;4.80;4.30;;;;;;;-143.84;49.20;45153.81;5033062;28;20450;-78
2022/12/22 10:10:56;;;;;;;10.70;5.27;;;;;;;-143.84;50.15;45159.50;5032651;28;20519;-78
2022/12/22 10:13:23;;;;;;;13.40;5.73;;;;;;;-143.84;50.02;45193.78;5033112;28;20433;-78
2022/12/22 10:15:52;;;;;;;6.57;4.90;;;;;;;-143.84;50.73;45150.00;5032947;28;20503;-78
2022/12/22 10:18:21;;;;;;;10.40;5.73;;;;;;;-143.84;49.59;45155.69;5033144;28;20504;-79
2022/12/22 10:21:09;;;;;;;6.97;4.43;;;;;;;-143.84;49.59;45155.69;5032795;28;20479;-78
2022/12/22 10:23:39;;;;;;;9.93;4.60;;;;;;;-143.84;50.30;45159.50;5031935;28;20450;-78
2022/12/22 10:26:10;;;;;;;9.13;4.60;;;;;;;-143.84;48.95;45144.28;5032016;28;20992;-79
2022/12/22 10:28:41;;;;;;;7.20;4.30;;;;;;;-143.84;50.40;45157.59;5032642;28;20549;-79
2022/12/22 10:31:17;;;;;;;14.10;6.30;;;;;;;-143.84;50.82;45142.38;5032971;28;20451;-78
2022/12/22 10:33:47;;;;;;;8.10;4.70;;;;;;;-143.84;49.85;45150.00;5032570;28;20449;-78
2022/12/22 10:36:21;;;;;;;9.93;5.60;;;;;;;-143.84;50.01;45159.50;5032900;28;20423;-79
2022/12/22 10:39:02;;;;;;;12.23;3.70;;;;;;;-143.84;49.77;45144.28;5032851;28;20443;-75
2022/12/22 10:41:33;;;;;;;5.27;4.20;;;;;;;-143.84;50.39;45150.00;5032796;28;20874;-77
2022/12/22 10:44:11;;;;;;;7.07;4.13;;;;;;;-143.84;50.76;45174.75;5032300;28;20864;-80
2022/12/22 10:46:46;;;;;;;8.13;3.80;;;;;;;-143.84;52.04;45150.00;5032497;28;20942;-77
2022/12/22 10:49:20;;;;;;;5.80;4.20;;;;;;;-143.84;52.38;45161.41;5031860;28;20452;-76
2022/12/22 10:51:52;;;;;;;8.30;4.20;;;;;;;-143.84;54.23;45186.16;5031770;28;20510;-75
2022/12/22 10:54:51;;;;;;;8.30;4.60;;;;;;;-143.84;54.14;45151.91;5031693;28;20441;-76
2022/12/22 10:57:29;;;;;;;7.87;4.70;;;;;;;-143.84;54.23;45163.31;5031934;28;20464;-75
2022/12/22 10:59:58;;;;;;;4.00;3.70;;;;;;;-143.84;54.52;45165.22;5031676;28;20541;-77
2022/12/22 11:02:36;;;;;;;5.47;4.67;;;;;;;-143.84;56.05;45197.59;5031795;28;20436;-78
2022/12/22 11:05:06;;;;;;;7.27;4.70;;;;;;;-143.84;56.92;45140.47;5031642;28;20866;-77
2022/12/22 11:07:36;;;;;;;5.67;4.33;;;;;;;-143.84;57.25;45170.94;5032295;28;20445;-75
2022/12/22 11:10:16;;;;;;;5.27;4.10;;;;;;;-143.84;57.13;45159.50;5031680;28;20502;-77
2022/12/22 11:12:59;;;;;;;6.33;4.23;;;;;;;-143.84;57.91;45148.09;5031665;28;20468;-77
2022/12/22 11:15:34;;;;;;;5.43;4.17;;;;;;;-143.84;58.67;45184.25;5031448;28;21367;-78
2022/12/22 11:18:13;;;;;;;10.37;4.60;;;;;;;-143.84;58.04;45169.03;5031989;28;20427;-78
2022/12/22 11:20:56;;;;;;;5.77;3.50;;;;;;;-143.84;57.32;45157.59;5049586;28;20536;-78
2022/12/22 11:23:33;;;;;;;6.70;4.13;;;;;;;-143.84;58.22;45155.69;5051178;28;20439;-78
2022/12/22 11:26:11;;;;;;;6.17;4.80;;;;;;;-143.84;57.80;45157.59;5051548;28;20467;-79
2022/12/22 11:28:56;;;;;;;4.93;4.40;;;;;;;-143.84;59.54;45132.84;5051564;28;20435;-78
2022/12/22 11:31:42;;;;;;;5.87;3.60;;;;;;;-143.84;58.81;45167.13;5051761;28;20817;-77
2022/12/22 11:34:23;;;;;;;6.73;3.70;;;;;;;-143.84;58.68;45186.16;5051029;28;20505;-77
2022/12/22 11:37:05;;;;;;;5.87;3.57;;;;;;;-143.84;59.87;45170.94;5051170;28;20431;-77
2022/12/22 11:39:40;;;;;;;6.83;4.60;;;;;;;-143.84;60.94;45163.31;5051009;28;20483;-77
2022/12/22 11:42:21;;;;;;;5.97;3.90;;;;;;;-143.84;61.34;45172.84;5051060;28;20452;-77
2022/12/22 11:45:00;;;;;;;5.50;5.00;;;;;;;-143.84;61.73;45163.31;5051384;28;20437;-77
2022/12/22 11:47:36;;;;;;;7.40;4.63;;;;;;;-143.84;63.00;45169.03;5051140;28;20503;-78
2022/12/22 11:50:26;;;;;;;6.63;3.73;;;;;;;-143.84;63.72;45169.03;5051154;28;20512;-78
2022/12/22 11:53:01;;;;;;;3.83;3.43;;;;;;;-143.84;65.55;45163.31;5050760;28;20448;-77
2022/12/22 11:55:37;;;;;;;5.07;4.07;;;;;;;-143.84;66.21;45144.28;5050427;28;20524;-78
2022/12/22 11:58:31;;;;;;;3.80;3.37;;;;;;;-143.84;67.61;45159.50;5050943;28;20722;-77
2022/12/22 12:01:07;;;;;;;6.70;3.77;;;;;;;-143.84;70.01;45191.88;5049722;28;20477;-78
2022/12/22 12:04:05;;;;;;;11.27;4.97;;;;;;;-143.84;70.91;45188.06;5049834;28;20439;-78
2022/12/22 12:06:55;;;;;;;4.40;3.97;;;;;;;-143.84;70.59;45186.16;5054536;28;20602;-77
2022/12/22 12:09:36;;;;;;;6.40;4.37;;;;;;;-143.84;71.11;45138.56;5054823;28;20453;-77
2022/12/22 12:12:15;;;;;;;7.00;3.90;;;;;;;-143.84;72.42;45151.91;5054612;28;20441;-77
2022/12/22 12:14:53;;;;;;;4.67;4.27;;;;;;;-143.84;73.38;45129.03;5054878;28;20492;-77
2022/12/22 12:17:34;;;;;;;10.43;3.97;;;;;;;-143.84;71.82;45138.56;5054722;28;20437;-77
2022/12/22 12:20:28;;;;;;;5.87;3.80;;;;;;;-143.84;71.34;45138.56;5054241;28;21006;-77
2022/12/22 12:23:08;;;;;;;4.97;3.00;;;;;;;-143.84;73.08;45150.00;5054392;28;20510;-77
2022/12/22 12:25:42;;;;;;;9.07;4.73;;;;;;;-143.84;72.43;45163.31;5054774;28;20430;-77
2022/12/22 12:28:22;;;;;;;5.70;3.87;;;;;;;-143.84;73.34;45148.09;5054388;28;20444;-77
2022/12/22 12:30:54;;;;;;;6.50;3.70;;;;;;;-143.84;73.01;45134.75;5054413;28;20468;-77
2022/12/22 12:33:31;;;;;;;6.03;4.10;;;;;;;-143.84;73.29;45129.03;5054167;28;20439;-77
2022/12/22 12:36:07;;;;;;;10.07;6.17;;;;;;;-143.84;73.73;45134.75;5054226;28;20429;-77
2022/12/22 12:38:43;;;;;;;10.20;4.70;;;;;;;-143.84;74.24;45150.00;5054266;28;20422;-77
2022/12/22 12:41:21;;;;;;;6.00;3.83;;;;;;;-143.84;73.44;45174.75;5054728;28;20870;-77
2022/12/22 12:43:53;;;;;;;3.57;3.27;;;;;;;-143.84;74.27;45144.28;5053788;28;20958;-77
2022/12/22 12:47:08;;;;;;;7.83;5.47;;;;;;;-143.84;75.35;45146.19;5053657;28;20450;-80
2022/12/22 12:49:58;;;;;;;10.63;6.67;;;;;;;-143.84;74.83;45140.47;4973202;28;21438;-77
2022/12/22 12:52:58;;;;;;;13.53;4.30;;;;;;;-143.84;74.69;45148.09;5054298;28;20449;-76
2022/12/22 12:55:30;;;;;;;8.50;4.70;;;;;;;-143.84;74.89;45106.19;5049202;28;20974;-77
2022/12/22 12:57:59;;;;;;;4.73;4.20;;;;;;;-143.84;74.53;45140.47;5054438;28;20548;-76
2022/12/22 13:00:48;;;;;;;6.00;4.23;;;;;;;-143.84;74.50;45163.31;5054543;28;21186;-79
2022/12/22 13:03:37;;;;;;;10.40;4.93;;;;;;;-143.84;75.03;45140.47;5054409;28;21301;-78
2022/12/22 13:06:06;;;;;;;9.30;4.70;;;;;;;-143.84;75.22;45150.00;5054307;28;20446;-78
2022/12/22 13:09:17;;;;;;;4.83;3.50;;;;;;;-143.84;75.45;45136.66;5054343;28;20456;-78
2022/12/22 13:11:44;;;;;;;5.73;4.50;;;;;;;-143.84;75.75;45127.13;5053481;28;20476;-78
2022/12/22 13:14:11;;;;;;;6.00;3.97;;;;;;;-143.84;76.02;45140.47;5053283;28;20448;-78
2022/12/22 13:16:40;;;;;;;7.87;4.30;;;;;;;-143.84;76.29;45121.44;5051907;28;20446;-78
2022/12/22 13:19:26;;;;;;;8.93;5.77;;;;;;;-143.84;77.01;45115.72;5052430;28;20874;-78
2022/12/22 13:21:56;;;;;;;7.10;4.63;;;;;;;-143.84;77.33;45106.19;5053098;28;20480;-79
2022/12/22 13:24:31;;;;;;;6.50;4.30;;;;;;;-143.84;77.63;45123.34;5053651;28;20455;-77
2022/12/22 13:27:05;;;;;;;5.60;4.63;;;;;;;-143.84;77.26;45077.63;5053686;28;20456;-78
2022/12/22 13:29:42;;;;;;;5.67;3.70;;;;;;;-143.84;78.14;45090.97;5053258;28;21004;-77
2022/12/22 13:32:31;;;;;;;15.27;5.10;;;;;;;-143.84;78.06;45100.47;5053646;28;20444;-77
2022/12/22 13:35:05;;;;;;;6.87;4.43;;;;;;;-143.84;78.40;45111.91;5053084;28;20445;-77
2022/12/22 13:37:40;;;;;;;6.93;4.77;;;;;;;-143.84;78.82;45094.78;5053566;28;20508;-77
2022/12/22 13:40:13;;;;;;;9.67;4.87;;;;;;;-143.84;78.00;45138.56;5053306;28;20523;-77
2022/12/22 13:42:45;;;;;;;10.60;5.37;;;;;;;-143.84;78.25;45115.72;5053255;28;20443;-77
2022/12/22 13:45:22;;;;;;;10.10;5.50;;;;;;;-143.84;78.54;45094.78;5052974;28;20444;-77
2022/12/22 13:47:51;;;;;;;7.93;5.07;;;;;;;-143.84;78.66;45102.38;5053333;28;20440;-77
2022/12/22 13:50:23;;;;;;;13.70;8.27;;;;;;;-143.84;79.08;45064.31;5052724;28;20448;-77
2022/12/22 13:52:52;;;;;;;12.63;6.80;;;;;;;-143.84;79.25;45037.66;5035511;28;20437;-77
2022/12/22 13:55:25;;;;;;;16.40;6.80;;;;;;;-143.84;80.02;45033.84;5053008;28;20858;-76
2022/12/22 13:57:54;;;;;;;8.63;5.53;;;;;;;-143.84;79.93;45047.16;5052766;28;20857;-76
2022/12/22 14:00:25;;;;;;;14.40;8.00;;;;;;;-143.84;79.88;45066.22;5052633;28;20898;-76
2022/12/22 14:02:53;;;;;;;20.57;11.80;;;;;;;-143.84;80.45;45007.19;5052663;28;20444;-75
2022/12/22 14:05:21;;;;;;;13.60;8.23;;;;;;;-143.84;80.81;45030.03;5052167;28;20437;-75
2022/12/22 14:07:59;;;;;;;12.47;6.73;;;;;;;-143.84;80.93;45007.19;5052432;28;20994;-76
2022/12/22 14:10:28;;;;;;;12.83;6.47;;;;;;;-143.84;80.69;44997.66;5052376;28;21225;-76
2022/12/22 14:12:56;;;;;;;20.37;5.27;;;;;;;-143.84;79.98;45052.88;5052519;28;20427;-75
2022/12/22 14:15:23;;;;;;;11.50;5.40;;;;;;;-143.84;80.47;45018.59;5052000;28;20440;-75
2022/12/22 14:17:51;;;;;;;11.47;6.80;;;;;;;-143.84;81.07;44963.38;5052469;28;20818;-75
2022/12/22 14:20:25;;;;;;;8.87;5.87;;;;;;;-143.84;81.35;44980.53;5052447;28;20815;-76
2022/12/22 14:22:56;;;;;;;11.67;7.80;;;;;;;-143.84;81.62;44951.97;5051915;28;20451;-74
2022/12/22 14:25:31;;;;;;;22.43;5.50;;;;;;;-143.84;81.74;44948.16;5051726;28;20446;-74
2022/12/22 14:27:59;;;;;;;19.13;5.43;;;;;;;-143.84;82.07;44917.69;5051793;28;20493;-74
2022/12/22 14:30:31;;;;;;;8.60;5.50;;;;;;;-143.84;82.54;44871.97;5051957;28;20507;-74
2022/12/22 14:33:15;;;;;;;20.07;9.30;;;;;;;-143.84;82.84;44824.38;5052219;28;20448;-79
2022/12/22 14:35:44;;;;;;;15.43;7.57;;;;;;;-143.84;83.12;44835.81;5051456;28;20444;-75
2022/12/22 14:38:22;;;;;;;12.53;7.90;;;;;;;-143.84;83.41;44767.25;5051786;28;20446;-75
2022/12/22 14:40:50;;;;;;;8.80;6.77;;;;;;;-143.84;83.88;44694.91;5051546;28;20474;-75
2022/12/22 14:43:27;;;;;;;15.20;7.23;;;;;;;-143.84;84.80;44540.69;5051570;28;20929;-75
2022/12/22 14:46:04;;;;;;;14.87;8.40;;;;;;;-143.84;84.89;44561.63;5051391;28;20492;-75
2022/12/22 14:48:34;;;;;;;13.33;8.10;;;;;;;-143.84;85.02;44519.75;5051500;28;20443;-75
2022/12/22 14:51:04;;;;;;;7.20;6.30;;;;;;;-143.84;84.73;44569.25;5051516;28;20530;-75
2022/12/22 14:53:37;;;;;;;6.33;5.50;;;;;;;-143.84;84.07;44670.16;5051522;28;20448;-76
2022/12/22 14:56:10;;;;;;;9.13;6.83;;;;;;;-143.84;84.25;44653.03;5051353;28;20527;-75
2022/12/22 14:58:40;;;;;;;15.10;8.43;;;;;;;-143.84;84.71;44611.13;5051646;28;20566;-76
2022/12/22 15:01:20;;;;;;;16.27;9.23;;;;;;;-143.84;85.23;44455.03;5051368;28;20480;-77
2022/12/22 15:04:00;;;;;;;12.00;7.20;;;;;;;-143.84;85.21;44411.22;5051580;28;20927;-76
2022/12/22 15:06:40;;;;;;;16.70;8.13;;;;;;;-143.84;85.25;44352.22;5051685;28;20477;-77
2022/12/22 15:09:24;;;;;;;15.23;8.90;;;;;;;-143.84;85.88;44316.03;5051531;28;20497;-77
2022/12/22 15:11:56;;;;;;;16.73;8.93;;;;;;;-143.84;85.68;44213.25;5051431;28;20463;-76
2022/12/22 15:14:25;;;;;;;8.70;7.63;;;;;;;-143.84;85.93;44236.09;5051596;28;20439;-76
2022/12/22 15:16:56;;;;;;;9.20;6.70;;;;;;;-143.84;85.85;44251.31;5051461;28;20502;-76
2022/12/22 15:19:23;;;;;;;7.27;5.70;;;;;;;-143.84;86.06;44178.97;5052187;28;20553;-76
2022/12/22 15:21:52;;;;;;;14.27;6.43;;;;;;;-143.84;87.26;44020.97;5051311;28;20553;-76
2022/12/22 15:24:19;;;;;;;17.23;7.37;;;;;;;-143.84;88.06;43929.59;5051622;28;20504;-76